sensor_id;sensor_type;location;lat;lon;timestamp;P1;durP1;ratioP1;P2;durP2;ratioP2
53401;SDS011;39295;45.534;20.034;2022-12-29T00:01:41;27.65;;;14.00;;
53401;SDS011;39295;45.534;20.034;2022-12-29T00:04:09;26.23;;;14.15;;
53401;SDS011;39295;45.534;20.034;2022-12-29T00:06:37;26.52;;;13.68;;
53401;SDS011;39295;45.534;20.034;2022-12-29T00:15:10;30.35;;;14.57;;
53401;SDS011;39295;45.534;20.034;2022-12-29T00:17:54;28.23;;;14.85;;
53401;SDS011;39295;45.534;20.034;2022-12-29T00:20:20;24.88;;;14.23;;
53401;SDS011;39295;45.534;20.034;2022-12-29T00:23:05;38.80;;;16.10;;
53401;SDS011;39295;45.534;20.034;2022-12-29T00:25:50;49.78;;;17.83;;
53401;SDS011;39295;45.534;20.034;2022-12-29T00:28:34;39.33;;;16.73;;
53401;SDS011;39295;45.534;20.034;2022-12-29T00:31:19;33.40;;;14.85;;
53401;SDS011;39295;45.534;20.034;2022-12-29T00:34:03;30.52;;;14.77;;
53401;SDS011;39295;45.534;20.034;2022-12-29T00:36:52;24.02;;;14.05;;
53401;SDS011;39295;45.534;20.034;2022-12-29T00:42:22;27.88;;;14.20;;
53401;SDS011;39295;45.534;20.034;2022-12-29T00:45:06;27.13;;;13.73;;
53401;SDS011;39295;45.534;20.034;2022-12-29T00:47:33;24.70;;;13.63;;
53401;SDS011;39295;45.534;20.034;2022-12-29T00:49:59;23.30;;;13.18;;
53401;SDS011;39295;45.534;20.034;2022-12-29T00:52:25;23.33;;;13.00;;
53401;SDS011;39295;45.534;20.034;2022-12-29T01:00:38;23.05;;;11.82;;
53401;SDS011;39295;45.534;20.034;2022-12-29T01:03:04;18.27;;;11.35;;
53401;SDS011;39295;45.534;20.034;2022-12-29T01:05:30;17.63;;;10.80;;
53401;SDS011;39295;45.534;20.034;2022-12-29T01:07:56;22.85;;;13.93;;
53401;SDS011;39295;45.534;20.034;2022-12-29T01:13:25;26.70;;;13.43;;
53401;SDS011;39295;45.534;20.034;2022-12-29T01:15:52;27.52;;;13.07;;
53401;SDS011;39295;45.534;20.034;2022-12-29T01:18:18;34.85;;;18.60;;
53401;SDS011;39295;45.534;20.034;2022-12-29T01:20:44;36.75;;;19.17;;
53401;SDS011;39295;45.534;20.034;2022-12-29T01:23:10;32.13;;;16.90;;
53401;SDS011;39295;45.534;20.034;2022-12-29T01:28:40;30.15;;;15.20;;
53401;SDS011;39295;45.534;20.034;2022-12-29T01:31:10;21.20;;;13.05;;
53401;SDS011;39295;45.534;20.034;2022-12-29T01:33:36;22.13;;;12.45;;
53401;SDS011;39295;45.534;20.034;2022-12-29T01:36:03;30.10;;;15.50;;
53401;SDS011;39295;45.534;20.034;2022-12-29T01:38:30;30.50;;;16.27;;
53401;SDS011;39295;45.534;20.034;2022-12-29T01:40:56;38.92;;;19.48;;
53401;SDS011;39295;45.534;20.034;2022-12-29T01:43:37;32.50;;;17.13;;
53401;SDS011;39295;45.534;20.034;2022-12-29T01:46:04;28.08;;;15.10;;
53401;SDS011;39295;45.534;20.034;2022-12-29T01:48:32;32.47;;;16.80;;
53401;SDS011;39295;45.534;20.034;2022-12-29T01:50:59;34.60;;;16.73;;
53401;SDS011;39295;45.534;20.034;2022-12-29T01:53:26;29.45;;;15.43;;
53401;SDS011;39295;45.534;20.034;2022-12-29T01:59:02;26.63;;;15.23;;
53401;SDS011;39295;45.534;20.034;2022-12-29T02:01:28;29.67;;;15.95;;
53401;SDS011;39295;45.534;20.034;2022-12-29T02:03:54;36.53;;;17.40;;
53401;SDS011;39295;45.534;20.034;2022-12-29T02:06:21;29.30;;;15.32;;
53401;SDS011;39295;45.534;20.034;2022-12-29T02:08:49;28.40;;;15.20;;
53401;SDS011;39295;45.534;20.034;2022-12-29T02:14:19;25.85;;;14.38;;
53401;SDS011;39295;45.534;20.034;2022-12-29T02:37:43;30.88;;;17.00;;
53401;SDS011;39295;45.534;20.034;2022-12-29T02:45:15;39.17;;;18.50;;
53401;SDS011;39295;45.534;20.034;2022-12-29T02:47:51;40.55;;;18.95;;
53401;SDS011;39295;45.534;20.034;2022-12-29T02:50:40;40.28;;;18.95;;
53401;SDS011;39295;45.534;20.034;2022-12-29T02:53:06;34.80;;;17.08;;
53401;SDS011;39295;45.534;20.034;2022-12-29T02:55:33;33.30;;;18.17;;
53401;SDS011;39295;45.534;20.034;2022-12-29T03:00:53;30.98;;;17.35;;
53401;SDS011;39295;45.534;20.034;2022-12-29T03:13:52;31.05;;;16.35;;
53401;SDS011;39295;45.534;20.034;2022-12-29T03:16:46;28.48;;;16.73;;
53401;SDS011;39295;45.534;20.034;2022-12-29T03:19:14;29.10;;;16.42;;
53401;SDS011;39295;45.534;20.034;2022-12-29T03:21:47;33.92;;;17.90;;
53401;SDS011;39295;45.534;20.034;2022-12-29T03:24:35;33.90;;;17.67;;
53401;SDS011;39295;45.534;20.034;2022-12-29T03:27:04;37.53;;;18.20;;
53401;SDS011;39295;45.534;20.034;2022-12-29T03:29:33;38.92;;;19.52;;
53401;SDS011;39295;45.534;20.034;2022-12-29T03:32:01;41.45;;;20.73;;
53401;SDS011;39295;45.534;20.034;2022-12-29T03:34:28;46.28;;;22.33;;
53401;SDS011;39295;45.534;20.034;2022-12-29T03:36:58;47.83;;;22.83;;
53401;SDS011;39295;45.534;20.034;2022-12-29T03:39:26;55.78;;;24.27;;
53401;SDS011;39295;45.534;20.034;2022-12-29T03:41:58;44.33;;;21.55;;
53401;SDS011;39295;45.534;20.034;2022-12-29T03:44:32;41.28;;;20.73;;
53401;SDS011;39295;45.534;20.034;2022-12-29T03:46:59;39.70;;;20.55;;
53401;SDS011;39295;45.534;20.034;2022-12-29T03:49:25;37.28;;;19.42;;
53401;SDS011;39295;45.534;20.034;2022-12-29T03:51:51;35.63;;;18.58;;
53401;SDS011;39295;45.534;20.034;2022-12-29T03:54:17;32.08;;;18.70;;
53401;SDS011;39295;45.534;20.034;2022-12-29T04:02:31;33.75;;;19.48;;
53401;SDS011;39295;45.534;20.034;2022-12-29T04:04:57;29.88;;;18.33;;
53401;SDS011;39295;45.534;20.034;2022-12-29T04:07:23;28.38;;;18.10;;
53401;SDS011;39295;45.534;20.034;2022-12-29T04:09:50;30.85;;;17.95;;
53401;SDS011;39295;45.534;20.034;2022-12-29T04:12:16;33.15;;;17.98;;
53401;SDS011;39295;45.534;20.034;2022-12-29T04:14:42;34.72;;;18.52;;
53401;SDS011;39295;45.534;20.034;2022-12-29T04:17:08;40.17;;;19.48;;
53401;SDS011;39295;45.534;20.034;2022-12-29T04:19:34;51.88;;;22.15;;
53401;SDS011;39295;45.534;20.034;2022-12-29T04:22:00;62.15;;;23.10;;
53401;SDS011;39295;45.534;20.034;2022-12-29T04:24:26;85.00;;;27.00;;
53401;SDS011;39295;45.534;20.034;2022-12-29T04:29:56;501.02;;;107.20;;
53401;SDS011;39295;45.534;20.034;2022-12-29T04:32:22;713.00;;;167.25;;
53401;SDS011;39295;45.534;20.034;2022-12-29T04:34:48;448.88;;;113.95;;
53401;SDS011;39295;45.534;20.034;2022-12-29T04:37:14;280.00;;;81.32;;
53401;SDS011;39295;45.534;20.034;2022-12-29T04:39:40;177.60;;;55.38;;
53401;SDS011;39295;45.534;20.034;2022-12-29T04:42:06;130.82;;;48.17;;
53401;SDS011;39295;45.534;20.034;2022-12-29T04:44:32;143.18;;;47.95;;
53401;SDS011;39295;45.534;20.034;2022-12-29T04:46:58;143.13;;;43.67;;
53401;SDS011;39295;45.534;20.034;2022-12-29T04:49:25;155.77;;;41.55;;
53401;SDS011;39295;45.534;20.034;2022-12-29T04:51:51;169.10;;;42.38;;
53401;SDS011;39295;45.534;20.034;2022-12-29T04:54:17;215.52;;;54.28;;
53401;SDS011;39295;45.534;20.034;2022-12-29T04:59:46;145.30;;;37.97;;
53401;SDS011;39295;45.534;20.034;2022-12-29T05:02:12;118.60;;;35.60;;
53401;SDS011;39295;45.534;20.034;2022-12-29T05:04:38;128.80;;;35.33;;
53401;SDS011;39295;45.534;20.034;2022-12-29T05:07:04;75.30;;;27.45;;
53401;SDS011;39295;45.534;20.034;2022-12-29T05:09:31;43.25;;;23.30;;
53401;SDS011;39295;45.534;20.034;2022-12-29T05:14:42;72.57;;;29.67;;
53401;SDS011;39295;45.534;20.034;2022-12-29T05:20:11;49.03;;;26.30;;
53401;SDS011;39295;45.534;20.034;2022-12-29T05:22:37;75.45;;;35.05;;
53401;SDS011;39295;45.534;20.034;2022-12-29T05:28:07;54.60;;;27.98;;
53401;SDS011;39295;45.534;20.034;2022-12-29T05:30:33;41.88;;;23.67;;
53401;SDS011;39295;45.534;20.034;2022-12-29T05:32:59;39.28;;;22.67;;
53401;SDS011;39295;45.534;20.034;2022-12-29T05:35:25;38.65;;;23.25;;
53401;SDS011;39295;45.534;20.034;2022-12-29T05:37:51;40.20;;;23.48;;
53401;SDS011;39295;45.534;20.034;2022-12-29T05:40:17;44.33;;;22.70;;
53401;SDS011;39295;45.534;20.034;2022-12-29T05:42:43;40.67;;;23.55;;
53401;SDS011;39295;45.534;20.034;2022-12-29T05:45:09;40.20;;;24.60;;
53401;SDS011;39295;45.534;20.034;2022-12-29T05:47:35;41.78;;;24.95;;
53401;SDS011;39295;45.534;20.034;2022-12-29T05:50:02;40.55;;;25.77;;
53401;SDS011;39295;45.534;20.034;2022-12-29T05:52:40;41.53;;;24.90;;
53401;SDS011;39295;45.534;20.034;2022-12-29T06:01:13;44.97;;;25.88;;
53401;SDS011;39295;45.534;20.034;2022-12-29T06:03:39;50.60;;;25.83;;
53401;SDS011;39295;45.534;20.034;2022-12-29T06:06:05;53.58;;;28.52;;
53401;SDS011;39295;45.534;20.034;2022-12-29T06:08:34;52.78;;;29.15;;
53401;SDS011;39295;45.534;20.034;2022-12-29T06:14:04;47.85;;;26.52;;
53401;SDS011;39295;45.534;20.034;2022-12-29T06:16:30;46.22;;;26.38;;
53401;SDS011;39295;45.534;20.034;2022-12-29T06:18:56;46.13;;;27.35;;
53401;SDS011;39295;45.534;20.034;2022-12-29T06:21:22;44.85;;;25.73;;
53401;SDS011;39295;45.534;20.034;2022-12-29T06:23:48;55.83;;;30.98;;
53401;SDS011;39295;45.534;20.034;2022-12-29T06:26:14;161.45;;;51.70;;
53401;SDS011;39295;45.534;20.034;2022-12-29T06:28:40;300.52;;;71.70;;
53401;SDS011;39295;45.534;20.034;2022-12-29T06:31:08;475.58;;;100.82;;
53401;SDS011;39295;45.534;20.034;2022-12-29T06:33:35;458.95;;;102.95;;
53401;SDS011;39295;45.534;20.034;2022-12-29T06:36:01;202.07;;;58.45;;
53401;SDS011;39295;45.534;20.034;2022-12-29T06:38:27;215.90;;;61.03;;
53401;SDS011;39295;45.534;20.034;2022-12-29T06:40:53;226.18;;;69.47;;
53401;SDS011;39295;45.534;20.034;2022-12-29T06:43:19;328.63;;;98.00;;
53401;SDS011;39295;45.534;20.034;2022-12-29T06:45:45;365.00;;;112.80;;
53401;SDS011;39295;45.534;20.034;2022-12-29T06:48:11;264.20;;;88.45;;
53401;SDS011;39295;45.534;20.034;2022-12-29T06:50:37;223.90;;;76.82;;
53401;SDS011;39295;45.534;20.034;2022-12-29T06:53:03;210.95;;;73.80;;
53401;SDS011;39295;45.534;20.034;2022-12-29T06:55:29;165.30;;;65.53;;
53401;SDS011;39295;45.534;20.034;2022-12-29T06:57:56;120.72;;;52.20;;
53401;SDS011;39295;45.534;20.034;2022-12-29T07:00:22;92.35;;;44.55;;
53401;SDS011;39295;45.534;20.034;2022-12-29T07:02:49;80.03;;;42.85;;
53401;SDS011;39295;45.534;20.034;2022-12-29T07:05:16;63.03;;;35.63;;
53401;SDS011;39295;45.534;20.034;2022-12-29T07:07:42;63.47;;;35.53;;
53401;SDS011;39295;45.534;20.034;2022-12-29T07:10:08;55.95;;;33.40;;
53401;SDS011;39295;45.534;20.034;2022-12-29T07:12:35;58.72;;;32.33;;
53401;SDS011;39295;45.534;20.034;2022-12-29T07:15:01;54.70;;;31.15;;
53401;SDS011;39295;45.534;20.034;2022-12-29T07:17:27;51.53;;;29.38;;
53401;SDS011;39295;45.534;20.034;2022-12-29T07:19:53;50.55;;;29.30;;
53401;SDS011;39295;45.534;20.034;2022-12-29T07:22:19;60.03;;;32.45;;
53401;SDS011;39295;45.534;20.034;2022-12-29T07:24:45;88.43;;;47.60;;
53401;SDS011;39295;45.534;20.034;2022-12-29T07:27:11;75.47;;;39.88;;
53401;SDS011;39295;45.534;20.034;2022-12-29T07:29:38;180.65;;;62.92;;
53401;SDS011;39295;45.534;20.034;2022-12-29T07:32:04;246.48;;;86.82;;
53401;SDS011;39295;45.534;20.034;2022-12-29T07:34:30;108.43;;;50.75;;
53401;SDS011;39295;45.534;20.034;2022-12-29T07:36:56;93.68;;;49.00;;
53401;SDS011;39295;45.534;20.034;2022-12-29T07:39:22;90.30;;;44.75;;
53401;SDS011;39295;45.534;20.034;2022-12-29T07:44:52;88.03;;;45.30;;
53401;SDS011;39295;45.534;20.034;2022-12-29T07:47:18;81.95;;;44.30;;
53401;SDS011;39295;45.534;20.034;2022-12-29T07:49:44;78.55;;;43.42;;
53401;SDS011;39295;45.534;20.034;2022-12-29T07:52:10;84.30;;;45.00;;
53401;SDS011;39295;45.534;20.034;2022-12-29T07:54:36;76.97;;;42.13;;
53401;SDS011;39295;45.534;20.034;2022-12-29T07:59:47;81.07;;;43.22;;
53401;SDS011;39295;45.534;20.034;2022-12-29T08:02:13;82.38;;;44.53;;
53401;SDS011;39295;45.534;20.034;2022-12-29T08:04:39;88.40;;;45.03;;
53401;SDS011;39295;45.534;20.034;2022-12-29T08:07:05;80.95;;;42.30;;
53401;SDS011;39295;45.534;20.034;2022-12-29T08:09:31;68.05;;;37.33;;
53401;SDS011;39295;45.534;20.034;2022-12-29T08:11:57;75.30;;;36.78;;
53401;SDS011;39295;45.534;20.034;2022-12-29T08:14:23;65.90;;;35.95;;
53401;SDS011;39295;45.534;20.034;2022-12-29T08:16:49;56.65;;;34.08;;
53401;SDS011;39295;45.534;20.034;2022-12-29T08:19:15;62.67;;;35.25;;
53401;SDS011;39295;45.534;20.034;2022-12-29T08:21:41;53.38;;;33.72;;
53401;SDS011;39295;45.534;20.034;2022-12-29T08:24:07;65.22;;;38.55;;
53401;SDS011;39295;45.534;20.034;2022-12-29T08:26:34;63.47;;;36.22;;
53401;SDS011;39295;45.534;20.034;2022-12-29T08:29:00;64.05;;;37.03;;
53401;SDS011;39295;45.534;20.034;2022-12-29T08:31:26;67.95;;;37.92;;
53401;SDS011;39295;45.534;20.034;2022-12-29T08:33:52;62.30;;;36.75;;
53401;SDS011;39295;45.534;20.034;2022-12-29T08:36:18;63.25;;;36.35;;
53401;SDS011;39295;45.534;20.034;2022-12-29T08:38:44;66.05;;;37.53;;
53401;SDS011;39295;45.534;20.034;2022-12-29T08:41:10;66.30;;;36.40;;
53401;SDS011;39295;45.534;20.034;2022-12-29T08:43:36;68.97;;;37.15;;
53401;SDS011;39295;45.534;20.034;2022-12-29T08:46:02;58.92;;;34.00;;
53401;SDS011;39295;45.534;20.034;2022-12-29T08:48:28;60.13;;;33.17;;
53401;SDS011;39295;45.534;20.034;2022-12-29T08:50:55;59.83;;;33.17;;
53401;SDS011;39295;45.534;20.034;2022-12-29T08:53:21;67.03;;;33.90;;
53401;SDS011;39295;45.534;20.034;2022-12-29T08:55:47;62.15;;;33.88;;
53401;SDS011;39295;45.534;20.034;2022-12-29T08:58:13;56.78;;;33.25;;
53401;SDS011;39295;45.534;20.034;2022-12-29T09:00:41;57.25;;;33.38;;
53401;SDS011;39295;45.534;20.034;2022-12-29T09:03:08;51.35;;;31.20;;
53401;SDS011;39295;45.534;20.034;2022-12-29T09:05:34;52.40;;;29.60;;
53401;SDS011;39295;45.534;20.034;2022-12-29T09:08:00;46.97;;;29.65;;
53401;SDS011;39295;45.534;20.034;2022-12-29T09:13:30;51.08;;;30.25;;
53401;SDS011;39295;45.534;20.034;2022-12-29T09:15:59;51.97;;;30.95;;
53401;SDS011;39295;45.534;20.034;2022-12-29T09:18:26;50.13;;;30.73;;
53401;SDS011;39295;45.534;20.034;2022-12-29T09:21:10;52.15;;;31.40;;
53401;SDS011;39295;45.534;20.034;2022-12-29T09:23:36;45.53;;;29.50;;
53401;SDS011;39295;45.534;20.034;2022-12-29T09:26:03;51.38;;;31.15;;
53401;SDS011;39295;45.534;20.034;2022-12-29T09:28:29;69.53;;;37.40;;
53401;SDS011;39295;45.534;20.034;2022-12-29T09:30:56;64.07;;;34.20;;
53401;SDS011;39295;45.534;20.034;2022-12-29T09:33:23;61.25;;;33.72;;
53401;SDS011;39295;45.534;20.034;2022-12-29T09:35:50;64.50;;;35.22;;
53401;SDS011;39295;45.534;20.034;2022-12-29T09:38:16;61.30;;;33.95;;
53401;SDS011;39295;45.534;20.034;2022-12-29T09:40:44;60.58;;;33.60;;
53401;SDS011;39295;45.534;20.034;2022-12-29T09:43:20;50.03;;;28.83;;
53401;SDS011;39295;45.534;20.034;2022-12-29T09:48:21;61.17;;;32.45;;
53401;SDS011;39295;45.534;20.034;2022-12-29T09:50:50;72.70;;;35.10;;
53401;SDS011;39295;45.534;20.034;2022-12-29T09:53:25;63.33;;;32.83;;
53401;SDS011;39295;45.534;20.034;2022-12-29T09:55:53;60.60;;;31.90;;
53401;SDS011;39295;45.534;20.034;2022-12-29T09:58:21;63.83;;;33.00;;
53401;SDS011;39295;45.534;20.034;2022-12-29T10:00:50;66.80;;;33.50;;
53401;SDS011;39295;45.534;20.034;2022-12-29T10:03:19;67.82;;;35.17;;
53401;SDS011;39295;45.534;20.034;2022-12-29T10:13:32;56.33;;;32.90;;
53401;SDS011;39295;45.534;20.034;2022-12-29T10:16:10;55.25;;;30.35;;
53401;SDS011;39295;45.534;20.034;2022-12-29T10:18:42;55.35;;;29.58;;
53401;SDS011;39295;45.534;20.034;2022-12-29T10:21:17;56.35;;;29.00;;
53401;SDS011;39295;45.534;20.034;2022-12-29T10:23:50;52.00;;;29.48;;
53401;SDS011;39295;45.534;20.034;2022-12-29T10:26:18;50.83;;;31.00;;
53401;SDS011;39295;45.534;20.034;2022-12-29T10:31:23;47.92;;;28.40;;
53401;SDS011;39295;45.534;20.034;2022-12-29T10:33:51;48.50;;;27.88;;
53401;SDS011;39295;45.534;20.034;2022-12-29T10:36:30;50.05;;;27.73;;
53401;SDS011;39295;45.534;20.034;2022-12-29T10:41:42;63.20;;;33.25;;
53401;SDS011;39295;45.534;20.034;2022-12-29T10:44:11;49.78;;;29.48;;
53401;SDS011;39295;45.534;20.034;2022-12-29T10:46:39;43.00;;;25.33;;
53401;SDS011;39295;45.534;20.034;2022-12-29T10:49:06;42.90;;;26.30;;
53401;SDS011;39295;45.534;20.034;2022-12-29T10:51:37;50.88;;;28.42;;
53401;SDS011;39295;45.534;20.034;2022-12-29T10:54:05;65.88;;;38.17;;
53401;SDS011;39295;45.534;20.034;2022-12-29T10:59:39;42.67;;;27.00;;
53401;SDS011;39295;45.534;20.034;2022-12-29T11:04:50;42.85;;;25.38;;
53401;SDS011;39295;45.534;20.034;2022-12-29T11:07:21;45.78;;;27.80;;
53401;SDS011;39295;45.534;20.034;2022-12-29T11:09:47;38.38;;;24.85;;
53401;SDS011;39295;45.534;20.034;2022-12-29T11:14:45;39.80;;;24.50;;
53401;SDS011;39295;45.534;20.034;2022-12-29T11:17:15;38.45;;;25.83;;
53401;SDS011;39295;45.534;20.034;2022-12-29T11:19:43;41.53;;;25.38;;
53401;SDS011;39295;45.534;20.034;2022-12-29T11:22:13;42.53;;;27.05;;
53401;SDS011;39295;45.534;20.034;2022-12-29T11:24:44;43.78;;;27.70;;
53401;SDS011;39295;45.534;20.034;2022-12-29T11:27:14;45.05;;;28.25;;
53401;SDS011;39295;45.534;20.034;2022-12-29T11:29:41;50.75;;;28.80;;
53401;SDS011;39295;45.534;20.034;2022-12-29T11:32:16;51.00;;;28.33;;
53401;SDS011;39295;45.534;20.034;2022-12-29T11:34:43;44.75;;;30.33;;
53401;SDS011;39295;45.534;20.034;2022-12-29T11:37:11;44.35;;;27.40;;
53401;SDS011;39295;45.534;20.034;2022-12-29T11:39:43;47.95;;;29.30;;
53401;SDS011;39295;45.534;20.034;2022-12-29T11:48:43;45.53;;;27.90;;
53401;SDS011;39295;45.534;20.034;2022-12-29T11:51:09;57.20;;;36.55;;
53401;SDS011;39295;45.534;20.034;2022-12-29T11:53:38;56.75;;;39.05;;
53401;SDS011;39295;45.534;20.034;2022-12-29T11:56:06;57.00;;;35.53;;
53401;SDS011;39295;45.534;20.034;2022-12-29T11:58:35;58.03;;;35.83;;
53401;SDS011;39295;45.534;20.034;2022-12-29T12:01:13;57.42;;;36.33;;
53401;SDS011;39295;45.534;20.034;2022-12-29T12:03:41;56.63;;;36.08;;
53401;SDS011;39295;45.534;20.034;2022-12-29T12:06:11;54.67;;;36.42;;
53401;SDS011;39295;45.534;20.034;2022-12-29T12:08:39;57.90;;;36.88;;
53401;SDS011;39295;45.534;20.034;2022-12-29T12:11:12;54.17;;;35.47;;
53401;SDS011;39295;45.534;20.034;2022-12-29T12:13:43;58.45;;;36.90;;
53401;SDS011;39295;45.534;20.034;2022-12-29T12:16:15;77.57;;;45.15;;
53401;SDS011;39295;45.534;20.034;2022-12-29T12:21:10;121.03;;;54.47;;
53401;SDS011;39295;45.534;20.034;2022-12-29T12:23:54;98.18;;;47.78;;
53401;SDS011;39295;45.534;20.034;2022-12-29T12:26:28;72.88;;;41.25;;
53401;SDS011;39295;45.534;20.034;2022-12-29T12:28:57;64.32;;;39.22;;
53401;SDS011;39295;45.534;20.034;2022-12-29T12:34:18;69.28;;;39.53;;
53401;SDS011;39295;45.534;20.034;2022-12-29T12:36:53;63.60;;;37.72;;
53401;SDS011;39295;45.534;20.034;2022-12-29T12:47:22;79.00;;;43.03;;
53401;SDS011;39295;45.534;20.034;2022-12-29T13:06:02;84.13;;;48.20;;
53401;SDS011;39295;45.534;20.034;2022-12-29T13:17:01;68.95;;;45.25;;
53401;SDS011;39295;45.534;20.034;2022-12-29T13:19:41;71.25;;;44.13;;
53401;SDS011;39295;45.534;20.034;2022-12-29T13:22:18;67.43;;;42.13;;
53401;SDS011;39295;45.534;20.034;2022-12-29T13:24:51;78.25;;;44.30;;
53401;SDS011;39295;45.534;20.034;2022-12-29T13:37:30;71.65;;;45.45;;
53401;SDS011;39295;45.534;20.034;2022-12-29T13:40:04;87.32;;;49.70;;
53401;SDS011;39295;45.534;20.034;2022-12-29T13:42:35;89.70;;;51.67;;
53401;SDS011;39295;45.534;20.034;2022-12-29T13:45:03;72.90;;;44.63;;
53401;SDS011;39295;45.534;20.034;2022-12-29T13:47:32;64.95;;;42.88;;
53401;SDS011;39295;45.534;20.034;2022-12-29T13:49:59;62.75;;;41.08;;
53401;SDS011;39295;45.534;20.034;2022-12-29T13:59:52;58.83;;;37.10;;
53401;SDS011;39295;45.534;20.034;2022-12-29T14:04:55;77.13;;;42.78;;
53401;SDS011;39295;45.534;20.034;2022-12-29T14:07:21;74.82;;;43.85;;
53401;SDS011;39295;45.534;20.034;2022-12-29T14:09:48;76.25;;;45.40;;
53401;SDS011;39295;45.534;20.034;2022-12-29T14:14:48;76.95;;;42.55;;
53401;SDS011;39295;45.534;20.034;2022-12-29T14:17:16;67.63;;;40.17;;
53401;SDS011;39295;45.534;20.034;2022-12-29T14:19:43;60.28;;;40.17;;
53401;SDS011;39295;45.534;20.034;2022-12-29T14:22:10;62.72;;;40.30;;
53401;SDS011;39295;45.534;20.034;2022-12-29T14:24:42;70.90;;;40.63;;
53401;SDS011;39295;45.534;20.034;2022-12-29T14:32:49;76.72;;;46.95;;
53401;SDS011;39295;45.534;20.034;2022-12-29T14:34:59;90.10;;;51.45;;
53401;SDS011;39295;45.534;20.034;2022-12-29T14:42:40;75.45;;;45.58;;
53401;SDS011;39295;45.534;20.034;2022-12-29T14:45:08;78.63;;;45.08;;
53401;SDS011;39295;45.534;20.034;2022-12-29T14:47:48;80.68;;;46.42;;
53401;SDS011;39295;45.534;20.034;2022-12-29T14:50:16;82.90;;;48.80;;
53401;SDS011;39295;45.534;20.034;2022-12-29T14:58:00;87.28;;;47.97;;
53401;SDS011;39295;45.534;20.034;2022-12-29T15:00:36;87.90;;;50.17;;
53401;SDS011;39295;45.534;20.034;2022-12-29T15:05:44;86.45;;;50.70;;
53401;SDS011;39295;45.534;20.034;2022-12-29T15:08:12;90.50;;;55.65;;
53401;SDS011;39295;45.534;20.034;2022-12-29T15:10:50;143.93;;;80.93;;
53401;SDS011;39295;45.534;20.034;2022-12-29T15:13:22;189.95;;;100.93;;
53401;SDS011;39295;45.534;20.034;2022-12-29T15:15:50;193.13;;;102.33;;
53401;SDS011;39295;45.534;20.034;2022-12-29T15:18:22;203.60;;;105.47;;
53401;SDS011;39295;45.534;20.034;2022-12-29T15:21:01;197.30;;;100.18;;
53401;SDS011;39295;45.534;20.034;2022-12-29T15:23:28;164.05;;;87.35;;
53401;SDS011;39295;45.534;20.034;2022-12-29T15:25:58;207.40;;;107.25;;
53401;SDS011;39295;45.534;20.034;2022-12-29T15:28:25;944.85;;;542.80;;
53401;SDS011;39295;45.534;20.034;2022-12-29T15:31:05;244.98;;;137.95;;
53401;SDS011;39295;45.534;20.034;2022-12-29T15:33:31;1265.15;;;767.50;;
53401;SDS011;39295;45.534;20.034;2022-12-29T15:36:03;534.60;;;351.63;;
53401;SDS011;39295;45.534;20.034;2022-12-29T15:38:29;388.55;;;240.20;;
53401;SDS011;39295;45.534;20.034;2022-12-29T15:40:57;746.95;;;362.95;;
53401;SDS011;39295;45.534;20.034;2022-12-29T15:45:57;172.52;;;86.70;;
53401;SDS011;39295;45.534;20.034;2022-12-29T15:48:25;173.30;;;82.10;;
53401;SDS011;39295;45.534;20.034;2022-12-29T15:50:51;139.02;;;74.40;;
53401;SDS011;39295;45.534;20.034;2022-12-29T15:53:19;278.35;;;124.90;;
53401;SDS011;39295;45.534;20.034;2022-12-29T15:55:49;450.90;;;185.73;;
53401;SDS011;39295;45.534;20.034;2022-12-29T16:01:15;269.95;;;117.88;;
53401;SDS011;39295;45.534;20.034;2022-12-29T16:03:42;473.02;;;202.80;;
53401;SDS011;39295;45.534;20.034;2022-12-29T16:08:35;185.77;;;94.10;;
53401;SDS011;39295;45.534;20.034;2022-12-29T16:11:03;268.75;;;120.60;;
53401;SDS011;39295;45.534;20.034;2022-12-29T16:13:33;1346.18;;;632.72;;
53401;SDS011;39295;45.534;20.034;2022-12-29T16:20:59;761.85;;;402.33;;
53401;SDS011;39295;45.534;20.034;2022-12-29T16:23:27;819.80;;;452.17;;
53401;SDS011;39295;45.534;20.034;2022-12-29T16:25:54;1387.65;;;715.25;;
53401;SDS011;39295;45.534;20.034;2022-12-29T16:28:28;549.15;;;298.33;;
53401;SDS011;39295;45.534;20.034;2022-12-29T16:30:59;857.42;;;487.33;;
53401;SDS011;39295;45.534;20.034;2022-12-29T16:38:50;312.08;;;151.93;;
53401;SDS011;39295;45.534;20.034;2022-12-29T16:41:29;973.25;;;531.03;;
53401;SDS011;39295;45.534;20.034;2022-12-29T16:44:11;1191.18;;;657.90;;
53401;SDS011;39295;45.534;20.034;2022-12-29T16:46:40;560.70;;;315.20;;
53401;SDS011;39295;45.534;20.034;2022-12-29T16:49:13;789.90;;;443.98;;
53401;SDS011;39295;45.534;20.034;2022-12-29T16:51:40;1169.25;;;624.28;;
53401;SDS011;39295;45.534;20.034;2022-12-29T16:54:06;594.72;;;320.48;;
53401;SDS011;39295;45.534;20.034;2022-12-29T16:59:43;735.60;;;397.40;;
53401;SDS011;39295;45.534;20.034;2022-12-29T17:02:13;148.85;;;79.03;;
53401;SDS011;39295;45.534;20.034;2022-12-29T17:04:40;251.88;;;124.07;;
53401;SDS011;39295;45.534;20.034;2022-12-29T17:07:15;768.95;;;403.80;;
53401;SDS011;39295;45.534;20.034;2022-12-29T17:09:42;628.15;;;323.92;;
53401;SDS011;39295;45.534;20.034;2022-12-29T17:15:17;1019.05;;;514.67;;
53401;SDS011;39295;45.534;20.034;2022-12-29T17:17:44;1022.17;;;502.73;;
53401;SDS011;39295;45.534;20.034;2022-12-29T17:20:15;724.10;;;342.98;;
53401;SDS011;39295;45.534;20.034;2022-12-29T17:22:41;606.83;;;275.92;;
53401;SDS011;39295;45.534;20.034;2022-12-29T17:25:11;230.82;;;105.35;;
53401;SDS011;39295;45.534;20.034;2022-12-29T17:30:26;1310.10;;;598.75;;
53401;SDS011;39295;45.534;20.034;2022-12-29T17:32:53;1259.38;;;578.85;;
53401;SDS011;39295;45.534;20.034;2022-12-29T17:35:22;731.72;;;341.42;;
53401;SDS011;39295;45.534;20.034;2022-12-29T17:37:48;1020.45;;;468.77;;
53401;SDS011;39295;45.534;20.034;2022-12-29T17:40:16;581.35;;;260.30;;
53401;SDS011;39295;45.534;20.034;2022-12-29T17:42:44;1568.85;;;674.45;;
53401;SDS011;39295;45.534;20.034;2022-12-29T17:45:17;1999.90;;;847.95;;
53401;SDS011;39295;45.534;20.034;2022-12-29T17:47:43;1475.95;;;642.15;;
53401;SDS011;39295;45.534;20.034;2022-12-29T17:50:13;1114.45;;;504.60;;
53401;SDS011;39295;45.534;20.034;2022-12-29T17:52:40;664.55;;;287.50;;
53401;SDS011;39295;45.534;20.034;2022-12-29T17:55:12;210.25;;;74.03;;
53401;SDS011;39295;45.534;20.034;2022-12-29T17:57:40;50.60;;;25.92;;
53401;SDS011;39295;45.534;20.034;2022-12-29T18:00:07;171.75;;;59.97;;
53401;SDS011;39295;45.534;20.034;2022-12-29T18:02:34;173.95;;;62.47;;
53401;SDS011;39295;45.534;20.034;2022-12-29T18:05:00;51.45;;;26.90;;
53401;SDS011;39295;45.534;20.034;2022-12-29T18:07:26;291.63;;;90.70;;
53401;SDS011;39295;45.534;20.034;2022-12-29T18:09:53;1045.38;;;351.98;;
53401;SDS011;39295;45.534;20.034;2022-12-29T18:15:04;1698.90;;;579.85;;
53401;SDS011;39295;45.534;20.034;2022-12-29T18:17:31;1999.90;;;783.05;;